Scroll down
FLIGHT INFORMATION
China Airlines

CAL3482

At Arrival Gate

PGUM
 RJGG
DATE: 2021-02-06
GATE: 
GATE DEPARTURE: 22:54
TAKEOFF: 23:10
DATE: 2021-02-07
GATE:  -
LANDING: 03:11
GATE ARRIVAL: 03:21
FLIGHT DATA
Crew: 
Speed: 
959 kph
Altitude: 
40,023 ft
Stage Length: 
2,508.7 km
Block Time: 
4.4 hrs
Flight Time: 
4 hrs
Fuel Used: 
36,019 kg
Cleared Route: PGUM WUVEN REEDE RICHH MONPI ASEDA TAXON BUBDO TAPOP MAYON OTOWA KEC NATCH CARDS RJGG
TRACK DATA
50,000 ft 1,000 kts
AIRCRAFT INFO AND CUMULATIVE STATS
Aircraft Type: 
B744F
Registration: 
SELCAL: 
AQJP
MSN/LN: 
30764 / 1269
Operator: 
Total Flights: 
1
Total Block Time: 
4.4 hrs
Total Flight Time: 
4 hrs
Total Fuel Used: 
36,019 kg
DATALINK LOG | Newest first | Current as of: 2021-09-20 16:58:54
LABEL SEQUENCE CONTENT Dn/Up
QD181603:21 50.2▼ Dn
QC080603:11▼ Dn
2U2236RJGG 040200Z 28019KT 9999 FEW025 BKN050 08/M00 Q1019 NOSIG▲ Up
2S1824RJGG▼ Dn
UM205918CLEARED TO FL 400▲ Up
DM65908REQUEST FL 400 DUE TO A/C PERF▼ Dn
QB065623:10▼ Dn
QA503922:54 129.7▼ Dn
A33956CLEARED TO RJGG VIA WUVEN A597 KEC NATCH Y755 CARDS CARDSS. SQUAWK 4705.▲ Up
B33946PGUM RJGG F ▼ Dn
Q03743[LINK ACK]▲ Up
Q03743[LINK TEST]▼ Dn


AIRCRAFT HISTORY
FLIGHT DATE FLIGHT NO. ORIGIN DESTINATION CLEARED ROUTE BLOCK TIME FLIGHT TIME FUEL USED PILOT
2021-02-06CAL3482PGUM RJGG PGUM WUVEN REEDE RICHH MONPI ASEDA TAXON BUBDO TAPOP MAYON OTOWA KEC NATCH CARDS RJGG4.4 hrs4 hrs79,409 lbMike Dryden